Time;durP1;ratioP1;P1;durP2;ratioP2;P2;SDS_P1;SDS_P2;PMS_P1;PMS_P2;Temp;Humidity;BMP_temperature;BMP_pressure;BME280_temperature;BME280_humidity;BME280_pressure;Samples;Min_cycle;Max_cycle;Signal;HPM_P1;HPM_P2
2022/05/13 00:01:53;;;;;;;0.38;0.38;;;15.20;99.90;;;;;;5074534;28;20028;-74
2022/05/13 00:04:20;;;;;;;0.00;0.00;;;15.10;99.90;;;;;;5074566;28;20025;-73
2022/05/13 00:06:47;;;;;;;0.00;0.00;;;15.10;99.90;;;;;;5074426;28;20095;-74
2022/05/13 00:09:13;;;;;;;0.00;0.00;;;15.00;99.90;;;;;;5050519;28;20031;-73
2022/05/13 00:11:39;;;;;;;0.00;0.00;;;15.10;99.90;;;;;;5061888;28;20116;-74
2022/05/13 00:14:07;;;;;;;0.10;0.10;;;15.10;99.90;;;;;;5060212;28;20399;-73
2022/05/13 00:16:36;;;;;;;0.00;0.00;;;15.30;99.90;;;;;;5070102;28;20021;-74
2022/05/13 00:19:05;;;;;;;0.00;0.00;;;15.60;99.90;;;;;;5080917;28;20017;-74
2022/05/13 00:21:32;;;;;;;0.28;0.28;;;15.70;99.90;;;;;;5076236;28;20028;-74
2022/05/13 00:23:58;;;;;;;1.23;1.23;;;15.90;99.90;;;;;;5055704;28;20040;-73
2022/05/13 00:26:25;;;;;;;0.00;0.00;;;16.00;99.90;;;;;;5056040;28;20028;-74
2022/05/13 00:28:51;;;;;;;0.00;0.00;;;16.00;99.90;;;;;;5055998;28;20462;-75
2022/05/13 00:31:17;;;;;;;0.00;0.00;;;15.80;99.90;;;;;;5073996;28;20021;-75
2022/05/13 00:33:43;;;;;;;0.00;0.00;;;15.70;99.90;;;;;;5074472;28;20091;-74
2022/05/13 00:36:09;;;;;;;0.00;0.00;;;15.80;99.90;;;;;;5073963;28;20025;-74
2022/05/13 00:38:35;;;;;;;0.00;0.00;;;15.70;99.90;;;;;;5073781;28;20020;-74
2022/05/13 00:41:01;;;;;;;0.00;0.00;;;16.10;99.90;;;;;;5054943;28;20526;-74
2022/05/13 00:43:45;;;;;;;0.00;0.00;;;16.30;99.90;;;;;;5055747;28;20033;-74
2022/05/13 00:46:12;;;;;;;0.00;0.00;;;16.40;99.90;;;;;;5055612;28;20480;-74
2022/05/13 00:48:38;;;;;;;0.00;0.00;;;16.60;99.90;;;;;;5073568;28;20028;-74
2022/05/13 00:51:10;;;;;;;0.00;0.00;;;16.80;99.90;;;;;;5072307;28;20377;-74
2022/05/13 00:53:36;;;;;;;0.05;0.05;;;17.00;99.90;;;;;;5055526;28;20027;-73
2022/05/13 00:56:03;;;;;;;0.00;0.00;;;17.30;99.90;;;;;;5073205;28;20024;-75
2022/05/13 00:58:31;;;;;;;0.00;0.00;;;17.30;99.90;;;;;;5072927;28;20100;-74
2022/05/13 01:00:57;;;;;;;0.00;0.00;;;17.20;99.90;;;;;;5072398;28;20082;-75
2022/05/13 01:03:23;;;;;;;0.00;0.00;;;17.20;99.90;;;;;;5072254;28;20016;-75
2022/05/13 01:05:56;;;;;;;0.00;0.00;;;17.30;99.90;;;;;;5073159;28;20103;-74
2022/05/13 01:08:22;;;;;;;0.00;0.00;;;17.60;99.90;;;;;;5073346;28;20049;-74
2022/05/13 01:10:50;;;;;;;0.00;0.00;;;17.80;99.90;;;;;;5073290;28;20016;-74
2022/05/13 01:13:23;;;;;;;0.00;0.00;;;18.10;99.90;;;;;;5073393;28;20096;-74
2022/05/13 01:15:51;;;;;;;0.00;0.00;;;18.30;99.90;;;;;;5055378;28;20035;-73
2022/05/13 01:18:36;;;;;;;0.00;0.00;;;18.20;99.90;;;;;;5054999;28;20167;-74
2022/05/13 01:21:04;;;;;;;0.00;0.00;;;18.40;99.90;;;;;;5070420;28;20090;-74
2022/05/13 01:23:40;;;;;;;0.00;0.00;;;18.30;99.90;;;;;;5067251;28;20427;-75
2022/05/13 01:26:19;;;;;;;0.32;0.32;;;18.40;99.90;;;;;;5043266;28;20025;-74
2022/05/13 01:28:52;;;;;;;3.13;2.42;;;18.30;99.90;;;;;;5053765;28;20032;-74
2022/05/13 01:31:25;;;;;;;0.85;0.85;;;18.50;99.90;;;;;;5053513;28;20020;-73
2022/05/13 01:33:53;;;;;;;0.40;0.40;;;18.40;99.90;;;;;;5072943;28;20025;-74
2022/05/13 01:36:21;;;;;;;0.00;0.00;;;18.50;99.90;;;;;;5070464;28;20025;-74
2022/05/13 01:38:48;;;;;;;5.82;5.05;;;18.50;99.90;;;;;;5060335;28;20028;-74
2022/05/13 01:41:15;;;;;;;0.80;0.80;;;18.30;99.90;;;;;;5055476;28;20087;-74
2022/05/13 01:43:43;;;;;;;0.00;0.00;;;18.40;99.90;;;;;;5071610;28;20025;-75
2022/05/13 01:46:09;;;;;;;0.32;0.30;;;18.50;99.90;;;;;;5052308;28;20472;-73
2022/05/13 01:48:36;;;;;;;0.00;0.00;;;18.40;99.90;;;;;;5054332;28;20028;-75
2022/05/13 01:51:03;;;;;;;0.00;0.00;;;18.20;99.90;;;;;;5054704;28;20020;-76
2022/05/13 01:53:29;;;;;;;1.58;0.73;;;18.40;99.90;;;;;;5062749;28;20017;-74
2022/05/13 01:55:56;;;;;;;2.08;1.95;;;18.50;99.90;;;;;;5044367;28;20027;-74
2022/05/13 01:58:23;;;;;;;0.10;0.10;;;18.70;99.90;;;;;;5053873;28;20029;-74
2022/05/13 02:00:52;;;;;;;0.00;0.00;;;18.70;99.90;;;;;;5070952;28;20054;-75
2022/05/13 02:06:03;;;;;;;3.75;3.40;;;18.80;99.90;;;;;;5059289;28;20098;-74
2022/05/13 02:08:31;;;;;;;2.20;1.88;;;19.00;99.90;;;;;;5054545;28;20078;-74
2022/05/13 02:10:57;;;;;;;0.00;0.00;;;19.20;99.90;;;;;;5055816;28;20024;-74
2022/05/13 02:13:23;;;;;;;0.45;0.45;;;19.30;99.90;;;;;;5080260;28;20031;-72
2022/05/13 02:15:52;;;;;;;0.70;0.70;;;19.40;99.90;;;;;;5082288;28;20024;-73
2022/05/13 02:18:19;;;;;;;0.00;0.00;;;19.60;99.90;;;;;;5090476;28;20016;-73
2022/05/13 02:20:46;;;;;;;0.10;0.10;;;19.60;99.90;;;;;;5066127;28;20040;-74
2022/05/13 02:23:12;;;;;;;0.00;0.00;;;20.00;99.90;;;;;;5081050;28;20024;-73
2022/05/13 02:25:39;;;;;;;0.20;0.17;;;20.30;99.90;;;;;;5078801;28;20028;-73
2022/05/13 02:28:06;;;;;;;3.03;0.75;;;20.70;99.90;;;;;;5081494;28;20112;-74
2022/05/13 02:30:32;;;;;;;10.63;1.73;;;20.50;97.70;;;;;;5072441;28;20027;-74
2022/05/13 02:32:58;;;;;;;0.80;0.80;;;20.60;93.70;;;;;;5065944;28;20040;-74
2022/05/13 02:35:25;;;;;;;0.00;0.00;;;20.80;92.00;;;;;;5068878;28;20055;-74
2022/05/13 02:37:52;;;;;;;0.22;0.22;;;21.20;88.00;;;;;;5049576;28;20028;-74
2022/05/13 02:40:19;;;;;;;3.25;0.82;;;21.20;84.10;;;;;;5061206;28;20377;-74
2022/05/13 02:42:45;;;;;;;1.98;1.00;;;21.30;85.20;;;;;;5066035;28;20559;-74
2022/05/13 02:45:12;;;;;;;1.27;1.17;;;21.10;83.10;;;;;;5048858;28;20029;-74
2022/05/13 02:47:39;;;;;;;0.10;0.10;;;20.90;83.30;;;;;;5068997;28;20040;-75
2022/05/13 02:50:21;;;;;;;0.10;0.10;;;20.90;85.50;;;;;;5034025;28;20021;-74
2022/05/13 02:52:50;;;;;;;1.65;1.30;;;21.20;83.40;;;;;;5047326;28;20032;-74
2022/05/13 02:55:19;;;;;;;0.00;0.00;;;21.40;81.20;;;;;;5064790;28;20024;-74
2022/05/13 02:57:46;;;;;;;0.75;0.75;;;21.70;82.80;;;;;;5066308;28;20040;-74
2022/05/13 03:00:13;;;;;;;0.15;0.15;;;22.30;76.80;;;;;;5064372;28;20522;-74
2022/05/13 03:02:39;;;;;;;0.00;0.00;;;23.20;70.90;;;;;;5048345;28;20017;-75
2022/05/13 03:05:06;;;;;;;1.45;0.60;;;23.80;66.00;;;;;;5045638;28;20059;-74
2022/05/13 03:07:35;;;;;;;0.88;0.80;;;24.20;61.80;;;;;;5069302;28;20114;-75
2022/05/13 03:10:01;;;;;;;0.00;0.00;;;23.70;60.40;;;;;;5066354;28;20112;-74
2022/05/13 03:12:27;;;;;;;0.00;0.00;;;23.20;60.40;;;;;;5073117;28;20052;-74
2022/05/13 03:14:53;;;;;;;1.10;0.73;;;22.90;61.80;;;;;;5052653;28;20028;-74
2022/05/13 03:17:19;;;;;;;0.45;0.30;;;22.50;60.90;;;;;;5066343;28;20494;-74
2022/05/13 03:19:45;;;;;;;0.00;0.00;;;22.30;61.20;;;;;;5056884;28;20097;-75
2022/05/13 03:22:11;;;;;;;0.17;0.10;;;22.40;61.90;;;;;;5067908;28;20476;-74
2022/05/13 03:24:37;;;;;;;0.52;0.40;;;22.70;62.50;;;;;;5047328;28;20023;-75
2022/05/13 03:27:04;;;;;;;0.00;0.00;;;22.70;63.20;;;;;;5070616;28;20518;-78
2022/05/13 03:29:30;;;;;;;2.50;2.40;;;22.90;57.80;;;;;;5070877;28;20033;-73
2022/05/13 03:31:57;;;;;;;0.00;0.00;;;23.00;58.60;;;;;;5069858;28;20082;-74
2022/05/13 03:34:23;;;;;;;0.47;0.45;;;23.10;58.70;;;;;;5050573;28;20033;-75
2022/05/13 03:36:51;;;;;;;4.65;1.75;;;23.20;57.60;;;;;;5050354;28;20032;-75
2022/05/13 03:39:18;;;;;;;0.52;0.38;;;22.90;57.00;;;;;;5070996;28;20029;-75
2022/05/13 03:41:44;;;;;;;0.20;0.20;;;22.90;56.90;;;;;;5056049;28;20024;-74
2022/05/13 03:44:10;;;;;;;0.60;0.60;;;22.70;58.60;;;;;;5064025;28;20177;-76
2022/05/13 03:46:36;;;;;;;4.25;3.83;;;23.00;56.60;;;;;;5072869;28;20044;-75
2022/05/13 03:49:03;;;;;;;0.55;0.55;;;23.30;56.80;;;;;;5061209;28;20024;-79
2022/05/13 03:51:30;;;;;;;0.10;0.10;;;23.60;55.70;;;;;;5070746;28;20111;-76
2022/05/13 03:53:56;;;;;;;0.10;0.10;;;23.90;56.30;;;;;;5052323;28;20079;-76
2022/05/13 03:56:22;;;;;;;0.03;0.00;;;23.90;54.50;;;;;;5069150;28;20058;-75
2022/05/13 03:58:48;;;;;;;0.55;0.55;;;23.90;55.00;;;;;;5063148;28;20017;-76
2022/05/13 04:01:14;;;;;;;6.93;1.77;;;24.00;55.30;;;;;;5047841;28;20052;-76
2022/05/13 04:03:40;;;;;;;1.17;0.70;;;24.20;55.10;;;;;;5052468;28;20067;-76
2022/05/13 04:08:56;;;;;;;0.65;0.65;;;24.00;53.70;;;;;;5068228;28;20439;-75
2022/05/13 04:11:23;;;;;;;0.00;0.00;;;23.70;53.40;;;;;;5076144;28;20020;-75
2022/05/13 04:16:33;;;;;;;0.10;0.10;;;23.80;54.40;;;;;;5070273;28;20032;-75
2022/05/13 04:18:59;;;;;;;0.00;0.00;;;24.20;54.40;;;;;;5060950;28;20028;-74
2022/05/13 04:21:29;;;;;;;0.00;0.00;;;24.80;53.40;;;;;;5044815;28;20099;-73
2022/05/13 04:23:57;;;;;;;0.00;0.00;;;24.90;51.40;;;;;;5074434;28;20028;-74
2022/05/13 04:26:24;;;;;;;0.00;0.00;;;25.10;52.30;;;;;;5072501;28;20025;-74
2022/05/13 04:28:52;;;;;;;0.00;0.00;;;25.40;51.80;;;;;;5050266;28;20052;-74
2022/05/13 04:31:24;;;;;;;0.00;0.00;;;24.20;54.40;;;;;;5049720;28;20103;-74
2022/05/13 04:33:52;;;;;;;0.00;0.00;;;24.10;55.30;;;;;;5061103;28;20035;-74
2022/05/13 04:36:19;;;;;;;0.45;0.45;;;24.30;55.60;;;;;;5074224;28;20032;-75
2022/05/13 04:38:45;;;;;;;22.13;20.58;;;23.80;54.40;;;;;;5071484;28;20036;-74
2022/05/13 04:43:57;;;;;;;0.00;0.00;;;24.10;61.00;;;;;;5065685;28;20043;-73
2022/05/13 04:46:24;;;;;;;18.83;7.18;;;24.10;66.80;;;;;;5048153;28;20022;-75
2022/05/13 04:48:52;;;;;;;1.17;0.70;;;24.20;69.60;;;;;;5047751;28;20444;-73
2022/05/13 04:51:19;;;;;;;0.20;0.20;;;24.20;73.30;;;;;;5064003;28;20021;-73
2022/05/13 04:53:48;;;;;;;0.00;0.00;;;24.30;74.20;;;;;;5069266;28;20051;-72
2022/05/13 04:56:14;;;;;;;4.18;0.52;;;24.30;73.60;;;;;;5050534;28;20025;-73
2022/05/13 04:58:42;;;;;;;0.15;0.15;;;24.30;73.60;;;;;;5046456;28;20022;-74
2022/05/13 05:01:10;;;;;;;0.00;0.00;;;23.30;77.50;;;;;;5062066;28;20490;-75
2022/05/13 05:03:37;;;;;;;1.85;1.75;;;23.50;77.50;;;;;;5065437;28;20057;-75
2022/05/13 05:06:04;;;;;;;1.63;1.52;;;23.70;75.20;;;;;;5050957;28;20021;-75
2022/05/13 05:08:31;;;;;;;0.20;0.20;;;23.80;74.80;;;;;;5048419;28;20136;-73
2022/05/13 05:10:58;;;;;;;0.00;0.00;;;23.90;72.30;;;;;;5051856;28;20082;-73
2022/05/13 05:13:33;;;;;;;0.22;0.22;;;23.80;71.80;;;;;;5072114;28;20032;-74
2022/05/13 05:15:59;;;;;;;9.13;4.25;;;23.80;70.30;;;;;;5070047;28;20032;-76
2022/05/13 05:18:26;;;;;;;2.03;1.83;;;23.80;69.50;;;;;;5070218;28;20491;-74
2022/05/13 05:20:52;;;;;;;7.38;3.33;;;23.50;69.10;;;;;;5045838;28;20040;-74
2022/05/13 05:23:30;;;;;;;0.35;0.35;;;23.10;70.70;;;;;;5051110;28;20111;-75
2022/05/13 05:25:57;;;;;;;0.17;0.17;;;23.00;71.10;;;;;;5065914;28;20031;-75
2022/05/13 05:28:23;;;;;;;0.08;0.00;;;23.20;71.40;;;;;;5062659;28;20044;-77
2022/05/13 05:30:53;;;;;;;3.40;0.77;;;23.30;70.50;;;;;;5071134;28;20365;-75
2022/05/13 05:33:19;;;;;;;1.15;1.15;;;23.50;70.40;;;;;;5070521;28;20047;-76
2022/05/13 05:35:45;;;;;;;0.00;0.00;;;24.00;66.00;;;;;;5062206;28;20027;-76
2022/05/13 05:38:12;;;;;;;0.95;0.95;;;24.10;65.80;;;;;;5066235;28;20040;-77
2022/05/13 05:40:39;;;;;;;0.60;0.35;;;24.10;62.90;;;;;;5068654;28;20099;-77
2022/05/13 05:43:11;;;;;;;0.00;0.00;;;24.40;61.00;;;;;;5066712;28;20468;-76
2022/05/13 05:45:40;;;;;;;0.00;0.00;;;24.80;59.20;;;;;;5052828;28;20176;-74
2022/05/13 05:48:10;;;;;;;0.00;0.00;;;24.60;58.00;;;;;;5069831;28;20111;-76
2022/05/13 05:50:36;;;;;;;1.60;1.27;;;24.70;58.20;;;;;;5067638;28;20025;-77
2022/05/13 05:53:03;;;;;;;0.00;0.00;;;24.40;57.70;;;;;;5071835;28;20036;-75
2022/05/13 05:58:16;;;;;;;0.10;0.10;;;24.00;57.60;;;;;;5066056;28;21724;-76
2022/05/13 06:00:49;;;;;;;1.20;0.60;;;24.10;57.80;;;;;;5064284;28;20024;-75
2022/05/13 06:03:16;;;;;;;0.00;0.00;;;24.20;57.50;;;;;;5052939;28;20462;-75
2022/05/13 06:05:45;;;;;;;0.85;0.85;;;24.00;56.70;;;;;;5066112;28;20052;-76
2022/05/13 06:08:11;;;;;;;0.00;0.00;;;23.80;57.00;;;;;;5043164;28;20080;-76
2022/05/13 06:10:37;;;;;;;2.78;1.40;;;24.00;57.00;;;;;;5048427;28;20131;-72
2022/05/13 06:13:07;;;;;;;1.27;0.82;;;24.20;56.00;;;;;;5068525;28;20029;-72
2022/05/13 06:15:34;;;;;;;0.08;0.08;;;24.20;56.20;;;;;;5061872;28;20043;-73
2022/05/13 06:18:00;;;;;;;0.00;0.00;;;24.30;56.60;;;;;;5075062;28;20042;-70
2022/05/13 06:20:29;;;;;;;3.15;0.50;;;24.40;54.70;;;;;;5066973;28;20099;-72
2022/05/13 06:22:56;;;;;;;0.00;0.00;;;24.50;54.80;;;;;;5042896;28;20021;-73
2022/05/13 06:25:23;;;;;;;0.10;0.10;;;24.70;56.20;;;;;;5064220;28;20336;-72
2022/05/13 06:27:56;;;;;;;1.95;0.60;;;24.80;55.30;;;;;;5070794;28;20047;-72
2022/05/13 06:30:28;;;;;;;3.50;1.10;;;25.00;53.10;;;;;;5055750;28;20033;-72
2022/05/13 06:32:55;;;;;;;0.00;0.00;;;24.50;53.90;;;;;;5046817;28;20044;-73
2022/05/13 06:35:22;;;;;;;8.45;3.15;;;24.20;54.80;;;;;;5068334;28;20099;-71
2022/05/13 06:37:48;;;;;;;0.08;0.05;;;24.50;55.10;;;;;;5064954;28;20692;-71
2022/05/13 06:40:15;;;;;;;44.13;1.67;;;24.50;56.10;;;;;;5049202;28;20017;-72
2022/05/13 06:42:41;;;;;;;0.00;0.00;;;24.50;54.60;;;;;;5073134;28;20051;-71
2022/05/13 06:45:07;;;;;;;0.00;0.00;;;24.60;55.00;;;;;;5068484;28;20051;-73
2022/05/13 06:47:33;;;;;;;0.00;0.00;;;24.80;56.70;;;;;;5069984;28;20078;-73
2022/05/13 06:50:03;;;;;;;1.90;0.45;;;24.90;54.40;;;;;;5067414;28;20078;-72
2022/05/13 06:52:29;;;;;;;0.00;0.00;;;24.80;55.90;;;;;;5069766;28;20024;-74
2022/05/13 06:54:55;;;;;;;0.00;0.00;;;24.80;54.40;;;;;;5065687;28;20388;-73
2022/05/13 06:57:21;;;;;;;0.68;0.68;;;25.00;55.40;;;;;;5048572;28;20063;-72
2022/05/13 06:59:47;;;;;;;1.02;0.28;;;25.10;54.90;;;;;;5047277;28;20051;-73
2022/05/13 07:02:17;;;;;;;0.00;0.00;;;25.40;52.30;;;;;;5072375;28;20099;-72
2022/05/13 07:04:44;;;;;;;0.00;0.00;;;25.40;53.70;;;;;;5069905;28;20048;-72
2022/05/13 07:07:11;;;;;;;0.75;0.38;;;25.30;51.70;;;;;;5074154;28;20087;-72
2022/05/13 07:09:37;;;;;;;0.00;0.00;;;25.40;50.90;;;;;;5056689;28;20029;-73
2022/05/13 07:12:04;;;;;;;0.00;0.00;;;25.00;52.70;;;;;;5072623;28;20055;-73
2022/05/13 07:14:30;;;;;;;0.40;0.20;;;25.10;52.90;;;;;;5067161;28;20047;-73
2022/05/13 07:16:56;;;;;;;0.00;0.00;;;25.50;55.10;;;;;;5069832;28;20181;-73
2022/05/13 07:19:23;;;;;;;30.80;4.90;;;25.60;56.60;;;;;;5065127;28;20048;-73
2022/05/13 07:21:50;;;;;;;0.52;0.52;;;25.60;57.20;;;;;;5071519;28;20379;-73
2022/05/13 07:24:16;;;;;;;0.10;0.10;;;25.50;56.50;;;;;;5077604;28;20466;-74
2022/05/13 07:26:42;;;;;;;0.00;0.00;;;25.80;56.20;;;;;;5066738;28;20040;-73
2022/05/13 07:29:09;;;;;;;0.00;0.00;;;25.80;55.50;;;;;;5066084;28;20024;-72
2022/05/13 07:31:35;;;;;;;2.00;1.15;;;25.80;55.50;;;;;;5051207;28;20379;-73
2022/05/13 07:34:02;;;;;;;0.00;0.00;;;25.70;56.70;;;;;;5054261;28;20043;-72
2022/05/13 07:36:28;;;;;;;0.25;0.25;;;25.80;56.10;;;;;;5071211;28;20025;-74
2022/05/13 07:41:39;;;;;;;0.80;0.38;;;25.60;57.60;;;;;;5070802;28;20031;-73
2022/05/13 07:44:06;;;;;;;0.22;0.00;;;25.80;56.60;;;;;;5068285;28;20025;-74
2022/05/13 07:46:32;;;;;;;0.00;0.00;;;25.90;56.40;;;;;;5067528;28;20610;-72
2022/05/13 07:48:58;;;;;;;7.10;3.08;;;25.60;57.50;;;;;;5071535;28;20052;-72
2022/05/13 07:51:26;;;;;;;0.00;0.00;;;25.30;59.10;;;;;;5051771;28;20361;-70
2022/05/13 07:53:53;;;;;;;0.00;0.00;;;25.60;57.90;;;;;;5067243;28;20052;-73
2022/05/13 07:56:19;;;;;;;0.03;0.03;;;25.90;57.60;;;;;;5062788;28;20091;-73
2022/05/13 07:58:45;;;;;;;0.25;0.25;;;26.10;57.50;;;;;;5071718;28;20372;-73
2022/05/13 08:01:11;;;;;;;0.10;0.10;;;26.30;56.70;;;;;;5065342;28;20024;-73
2022/05/13 08:03:38;;;;;;;0.38;0.38;;;25.90;56.10;;;;;;5063267;28;20036;-73
2022/05/13 08:06:05;;;;;;;0.20;0.20;;;25.80;57.10;;;;;;5068080;28;20930;-74
2022/05/13 08:08:37;;;;;;;7.60;7.30;;;25.70;58.10;;;;;;5046025;28;20099;-72
2022/05/13 08:11:05;;;;;;;0.00;0.00;;;25.70;57.50;;;;;;5045679;28;20087;-74
2022/05/13 08:13:33;;;;;;;0.93;0.47;;;25.80;57.00;;;;;;5066627;28;20024;-71
2022/05/13 08:16:08;;;;;;;0.40;0.40;;;25.80;56.10;;;;;;5072085;28;20555;-72
2022/05/13 08:18:34;;;;;;;3.63;1.27;;;25.50;57.70;;;;;;5071133;28;20043;-73
2022/05/13 08:21:01;;;;;;;2.55;0.45;;;25.10;58.10;;;;;;5068861;28;20029;-72
2022/05/13 08:23:28;;;;;;;0.00;0.00;;;25.10;58.80;;;;;;5067949;28;20035;-73
2022/05/13 08:25:54;;;;;;;0.52;0.52;;;25.30;57.70;;;;;;5068994;28;20025;-73
2022/05/13 08:28:28;;;;;;;0.00;0.00;;;25.50;57.70;;;;;;5068145;28;20108;-73
2022/05/13 08:30:55;;;;;;;0.05;0.05;;;25.80;57.00;;;;;;5066916;28;20044;-73
2022/05/13 08:33:21;;;;;;;0.00;0.00;;;25.90;57.80;;;;;;5066861;28;20047;-72
2022/05/13 08:35:51;;;;;;;0.38;0.38;;;26.10;56.90;;;;;;5065998;28;20092;-72
2022/05/13 08:38:21;;;;;;;0.00;0.00;;;26.10;56.40;;;;;;5063941;28;20036;-73
2022/05/13 08:40:52;;;;;;;0.00;0.00;;;25.90;55.00;;;;;;5067622;28;20383;-73
2022/05/13 08:43:21;;;;;;;0.35;0.35;;;25.90;54.80;;;;;;5046841;28;20021;-73
2022/05/13 08:45:55;;;;;;;0.03;0.03;;;26.00;55.80;;;;;;5063463;28;20482;-74
2022/05/13 08:48:43;;;;;;;0.00;0.00;;;25.80;55.50;;;;;;5064695;28;20043;-75
2022/05/13 08:51:20;;;;;;;0.20;0.20;;;25.70;55.10;;;;;;5046793;28;20165;-76
2022/05/13 08:54:02;;;;;;;0.05;0.05;;;26.10;55.10;;;;;;5066256;28;20472;-77
2022/05/13 08:56:30;;;;;;;0.10;0.10;;;26.40;54.60;;;;;;5048226;28;20047;-75
2022/05/13 08:59:02;;;;;;;0.03;0.03;;;26.60;54.20;;;;;;5066309;28;20412;-75
2022/05/13 09:01:40;;;;;;;0.10;0.10;;;26.20;53.70;;;;;;5044247;28;20013;-74
2022/05/13 09:04:22;;;;;;;1.08;0.65;;;26.30;54.00;;;;;;5065768;28;20063;-75
2022/05/13 09:07:01;;;;;;;0.00;0.00;;;26.60;52.80;;;;;;5070252;28;20472;-77
2022/05/13 09:09:28;;;;;;;0.73;0.73;;;26.50;54.60;;;;;;5052972;28;20036;-76
2022/05/13 09:12:17;;;;;;;0.98;0.98;;;26.30;53.70;;;;;;5053156;28;20063;-75
2022/05/13 09:14:50;;;;;;;3.50;0.80;;;25.60;55.20;;;;;;5055313;28;20121;-75
2022/05/13 09:17:16;;;;;;;0.22;0.22;;;25.20;56.50;;;;;;5064272;28;20099;-73
2022/05/13 09:20:01;;;;;;;0.32;0.20;;;25.60;56.20;;;;;;5068212;28;20116;-75
2022/05/13 09:22:34;;;;;;;0.85;0.85;;;25.40;56.30;;;;;;5043275;28;20035;-75
2022/05/13 09:25:00;;;;;;;0.10;0.10;;;25.60;55.00;;;;;;5057196;28;20480;-76
2022/05/13 09:27:26;;;;;;;0.00;0.00;;;25.50;56.40;;;;;;5070029;28;20032;-77
2022/05/13 09:29:52;;;;;;;0.00;0.00;;;25.80;56.60;;;;;;5061859;28;20025;-74
2022/05/13 09:32:28;;;;;;;0.00;0.00;;;25.90;55.90;;;;;;5059910;28;20325;-74
2022/05/13 09:35:10;;;;;;;0.00;0.00;;;26.10;56.30;;;;;;5065847;28;20460;-75
2022/05/13 09:37:42;;;;;;;0.00;0.00;;;26.00;54.70;;;;;;5068666;28;20464;-74
2022/05/13 09:40:17;;;;;;;0.00;0.00;;;26.40;54.80;;;;;;5056259;28;20468;-75
2022/05/13 09:42:46;;;;;;;0.05;0.05;;;26.50;52.80;;;;;;5062942;28;20025;-74
2022/05/13 09:45:41;;;;;;;0.15;0.15;;;26.10;55.00;;;;;;5065588;28;20028;-74
2022/05/13 09:48:18;;;;;;;0.13;0.13;;;25.60;55.00;;;;;;5056365;28;20040;-74
2022/05/13 09:50:51;;;;;;;0.00;0.00;;;25.70;54.70;;;;;;5060914;28;20055;-74
2022/05/13 09:53:23;;;;;;;0.00;0.00;;;26.20;54.60;;;;;;5082576;28;20019;-75
2022/05/13 09:56:03;;;;;;;0.25;0.20;;;26.60;54.20;;;;;;5082989;28;20031;-74
2022/05/13 09:58:34;;;;;;;0.00;0.00;;;27.00;52.70;;;;;;5072550;28;20037;-75
2022/05/13 10:01:10;;;;;;;0.22;0.15;;;27.20;52.50;;;;;;5051606;28;20033;-73
2022/05/13 10:03:38;;;;;;;0.15;0.08;;;26.20;52.50;;;;;;5060830;28;20017;-75
2022/05/13 10:06:43;;;;;;;0.00;0.00;;;25.90;53.40;;;;;;5050345;28;20044;-74
2022/05/13 10:15:41;;;;;;;0.00;0.00;;;25.40;53.50;;;;;;5050470;28;20552;-76
2022/05/13 10:18:30;;;;;;;0.00;0.00;;;25.90;53.80;;;;;;5054482;28;20057;-77
2022/05/13 10:21:06;;;;;;;0.00;0.00;;;26.30;53.50;;;;;;5047517;28;20506;-75
2022/05/13 10:23:36;;;;;;;0.00;0.00;;;26.90;52.50;;;;;;5037294;28;20469;-75
2022/05/13 10:26:25;;;;;;;0.00;0.00;;;27.30;50.90;;;;;;5038502;28;20029;-73
2022/05/13 10:29:10;;;;;;;0.00;0.00;;;27.30;50.10;;;;;;5050893;28;20017;-76
2022/05/13 10:31:41;;;;;;;0.00;0.00;;;26.70;50.70;;;;;;5054855;28;20039;-75
2022/05/13 10:34:23;;;;;;;1.08;0.70;;;26.80;49.70;;;;;;5038542;28;20025;-74
2022/05/13 10:37:01;;;;;;;0.00;0.00;;;26.70;50.30;;;;;;5055781;28;20033;-74
2022/05/13 10:39:51;;;;;;;0.00;0.00;;;26.60;50.90;;;;;;5037833;28;20017;-74
2022/05/13 10:42:25;;;;;;;0.00;0.00;;;26.80;50.90;;;;;;5034737;28;20524;-76
2022/05/13 10:45:02;;;;;;;0.38;0.10;;;27.10;51.00;;;;;;5045233;28;20070;-74
2022/05/13 10:47:53;;;;;;;0.00;0.00;;;27.40;49.60;;;;;;5055559;28;20020;-74
2022/05/13 10:50:26;;;;;;;0.00;0.00;;;26.90;50.90;;;;;;5058909;28;20025;-75
2022/05/13 10:53:10;;;;;;;0.00;0.00;;;26.90;50.30;;;;;;5053317;28;20033;-75
2022/05/13 10:56:10;;;;;;;1.95;0.32;;;26.90;50.90;;;;;;5047126;28;20035;-75
2022/05/13 10:59:03;;;;;;;0.08;0.08;;;26.90;50.20;;;;;;5044568;28;20460;-76
2022/05/13 11:01:58;;;;;;;2.63;0.63;;;25.70;51.70;;;;;;5034588;28;20032;-76
2022/05/13 11:05:01;;;;;;;0.10;0.10;;;25.60;51.60;;;;;;5053240;28;20120;-78
2022/05/13 11:07:50;;;;;;;0.00;0.00;;;25.60;52.80;;;;;;5034421;28;20110;-75
2022/05/13 11:10:33;;;;;;;0.00;0.00;;;25.80;52.40;;;;;;5046844;28;20108;-75
2022/05/13 11:13:02;;;;;;;0.00;0.00;;;26.10;51.60;;;;;;5046803;28;20024;-75
2022/05/13 11:15:48;;;;;;;0.00;0.00;;;25.50;51.00;;;;;;5053747;28;20029;-74
2022/05/13 11:18:36;;;;;;;0.00;0.00;;;25.60;51.10;;;;;;5051244;28;20037;-73
2022/05/13 11:21:24;;;;;;;0.20;0.20;;;25.50;51.80;;;;;;5050071;28;20020;-75
2022/05/13 11:27:32;;;;;;;0.10;0.10;;;25.10;53.40;;;;;;5049878;28;20087;-77
2022/05/13 11:30:13;;;;;;;0.00;0.00;;;25.50;52.20;;;;;;5049888;28;20131;-77
2022/05/13 11:32:52;;;;;;;0.00;0.00;;;25.60;52.80;;;;;;5047849;28;20058;-73
2022/05/13 11:35:38;;;;;;;0.00;0.00;;;25.30;53.30;;;;;;5050565;28;20025;-73
2022/05/13 11:38:33;;;;;;;0.00;0.00;;;25.20;52.70;;;;;;5033438;28;20079;-74
2022/05/13 11:41:04;;;;;;;0.00;0.00;;;25.20;53.50;;;;;;5025768;28;20385;-74
2022/05/13 11:43:55;;;;;;;0.00;0.00;;;25.40;52.80;;;;;;5032089;28;20546;-75
2022/05/13 11:46:45;;;;;;;0.00;0.00;;;25.50;52.40;;;;;;5052677;28;20469;-75
2022/05/13 11:49:31;;;;;;;0.00;0.00;;;25.40;53.50;;;;;;5046985;28;20018;-76
2022/05/13 11:52:13;;;;;;;0.52;0.52;;;25.10;53.90;;;;;;5030871;28;20032;-77
2022/05/13 11:54:41;;;;;;;0.73;0.73;;;24.90;54.60;;;;;;5029808;28;20025;-77
2022/05/13 11:57:16;;;;;;;0.00;0.00;;;25.10;54.80;;;;;;5047474;28;20035;-76
2022/05/13 11:59:54;;;;;;;0.00;0.00;;;25.10;55.10;;;;;;5048140;28;20064;-77
2022/05/13 12:02:48;;;;;;;0.55;0.55;;;25.30;54.40;;;;;;5046470;28;20296;-77
2022/05/13 12:05:17;;;;;;;0.05;0.05;;;25.20;54.60;;;;;;5032174;28;20021;-77
2022/05/13 12:08:02;;;;;;;0.00;0.00;;;25.40;55.10;;;;;;5058042;28;20494;-76
2022/05/13 12:11:00;;;;;;;0.00;0.00;;;25.40;53.60;;;;;;5065970;28;20099;-75
2022/05/13 12:13:44;;;;;;;0.00;0.00;;;25.30;54.00;;;;;;5038275;28;20045;-76
2022/05/13 12:16:23;;;;;;;0.05;0.05;;;25.10;54.40;;;;;;5066159;28;20031;-77
2022/05/13 12:19:00;;;;;;;3.60;0.88;;;25.20;54.10;;;;;;5051769;28;20484;-75
2022/05/13 12:21:38;;;;;;;0.00;0.00;;;25.10;54.40;;;;;;5071537;28;20024;-75
2022/05/13 12:24:10;;;;;;;0.00;0.00;;;25.00;55.80;;;;;;5065743;28;20024;-77
2022/05/13 12:26:51;;;;;;;0.32;0.32;;;24.80;56.60;;;;;;5064891;28;20031;-76
2022/05/13 12:29:31;;;;;;;4.10;0.25;;;24.60;58.30;;;;;;5069586;28;20044;-75
2022/05/13 12:31:57;;;;;;;0.03;0.03;;;24.50;58.90;;;;;;5066015;28;20029;-76
2022/05/13 12:37:43;;;;;;;0.35;0.35;;;24.30;65.20;;;;;;5065564;28;20481;-76
2022/05/13 12:40:17;;;;;;;0.10;0.03;;;23.90;64.10;;;;;;5049739;28;20116;-76
2022/05/13 12:42:51;;;;;;;0.95;0.95;;;23.60;61.40;;;;;;5070450;28;20060;-76
2022/05/13 12:45:39;;;;;;;0.10;0.10;;;23.40;59.80;;;;;;5045188;28;20025;-77
2022/05/13 12:48:08;;;;;;;0.75;0.75;;;23.00;59.30;;;;;;5070233;28;20039;-79
2022/05/13 12:50:40;;;;;;;0.00;0.00;;;22.90;58.70;;;;;;5047166;28;20025;-78
2022/05/13 12:53:28;;;;;;;0.00;0.00;;;22.80;58.20;;;;;;5048408;28;20107;-75
2022/05/13 12:56:29;;;;;;;0.00;0.00;;;22.90;57.40;;;;;;5049005;28;20025;-76
2022/05/13 12:59:13;;;;;;;0.00;0.00;;;22.90;57.40;;;;;;5053175;28;20512;-75
2022/05/13 13:01:44;;;;;;;0.00;0.00;;;23.00;56.80;;;;;;5050480;28;20059;-77
2022/05/13 13:04:12;;;;;;;0.00;0.00;;;23.10;56.20;;;;;;5054706;28;20051;-76
2022/05/13 13:06:45;;;;;;;0.00;0.00;;;23.10;55.50;;;;;;5064405;28;20025;-76
2022/05/13 13:09:31;;;;;;;0.00;0.00;;;23.00;56.50;;;;;;5059853;28;20017;-76
2022/05/13 13:12:10;;;;;;;0.00;0.00;;;22.70;57.90;;;;;;5071257;28;20036;-76
2022/05/13 13:14:59;;;;;;;0.00;0.00;;;22.60;56.50;;;;;;5073113;28;20078;-77
2022/05/13 13:17:39;;;;;;;0.00;0.00;;;22.40;56.50;;;;;;5073055;28;20033;-76
2022/05/13 13:20:08;;;;;;;0.00;0.00;;;22.50;56.70;;;;;;5057204;28;20016;-78
2022/05/13 13:22:41;;;;;;;0.00;0.00;;;22.20;57.00;;;;;;5069331;28;20047;-78
2022/05/13 13:25:34;;;;;;;0.00;0.00;;;22.50;57.90;;;;;;5088640;28;20021;-77
2022/05/13 13:28:06;;;;;;;0.00;0.00;;;22.50;57.40;;;;;;5071683;28;20040;-78
2022/05/13 13:30:33;;;;;;;0.00;0.00;;;22.50;58.10;;;;;;5069588;28;20048;-77
2022/05/13 13:33:00;;;;;;;0.00;0.00;;;22.50;58.50;;;;;;5058720;28;20392;-76
2022/05/13 13:36:12;;;;;;;0.00;0.00;;;22.50;58.90;;;;;;5062895;28;20375;-76
2022/05/13 13:38:39;;;;;;;0.00;0.00;;;22.40;59.20;;;;;;5054243;28;20115;-76